sensor_id;sensor_type;location;lat;lon;timestamp;temperature;humidity
59973;DHT22;55298;-36.624;-64.282;2023-09-07T00:02:06;10.40;85.90
59973;DHT22;55298;-36.624;-64.282;2023-09-07T00:04:34;10.50;85.20
59973;DHT22;55298;-36.624;-64.282;2023-09-07T00:07:02;10.50;84.80
59973;DHT22;55298;-36.624;-64.282;2023-09-07T00:09:31;10.60;84.50
59973;DHT22;55298;-36.624;-64.282;2023-09-07T00:12:00;10.60;84.30
59973;DHT22;55298;-36.624;-64.282;2023-09-07T00:14:27;10.60;84.00
59973;DHT22;55298;-36.624;-64.282;2023-09-07T00:16:55;10.60;83.70
59973;DHT22;55298;-36.624;-64.282;2023-09-07T00:19:23;10.60;83.70
59973;DHT22;55298;-36.624;-64.282;2023-09-07T00:21:51;10.70;83.60
59973;DHT22;55298;-36.624;-64.282;2023-09-07T00:24:19;10.60;83.50
59973;DHT22;55298;-36.624;-64.282;2023-09-07T00:26:47;10.50;83.40
59973;DHT22;55298;-36.624;-64.282;2023-09-07T00:29:15;10.60;83.30
59973;DHT22;55298;-36.624;-64.282;2023-09-07T00:31:43;10.60;83.40
59973;DHT22;55298;-36.624;-64.282;2023-09-07T00:34:11;10.60;83.30
59973;DHT22;55298;-36.624;-64.282;2023-09-07T00:36:39;10.60;83.40
59973;DHT22;55298;-36.624;-64.282;2023-09-07T00:39:06;10.70;83.30
59973;DHT22;55298;-36.624;-64.282;2023-09-07T00:41:35;10.70;82.80
59973;DHT22;55298;-36.624;-64.282;2023-09-07T00:44:03;10.70;82.40
59973;DHT22;55298;-36.624;-64.282;2023-09-07T00:46:31;10.70;82.20
59973;DHT22;55298;-36.624;-64.282;2023-09-07T00:48:59;10.60;82.00
59973;DHT22;55298;-36.624;-64.282;2023-09-07T00:51:27;10.60;82.00
59973;DHT22;55298;-36.624;-64.282;2023-09-07T00:53:55;10.60;81.90
59973;DHT22;55298;-36.624;-64.282;2023-09-07T00:56:22;10.70;81.80
59973;DHT22;55298;-36.624;-64.282;2023-09-07T00:58:52;10.70;81.80
59973;DHT22;55298;-36.624;-64.282;2023-09-07T01:01:22;10.60;81.70
59973;DHT22;55298;-36.624;-64.282;2023-09-07T01:03:51;10.60;81.80
59973;DHT22;55298;-36.624;-64.282;2023-09-07T01:06:29;10.60;81.70
59973;DHT22;55298;-36.624;-64.282;2023-09-07T01:09:00;10.50;81.90
59973;DHT22;55298;-36.624;-64.282;2023-09-07T01:11:37;10.60;81.80
59973;DHT22;55298;-36.624;-64.282;2023-09-07T01:14:05;10.60;81.70
59973;DHT22;55298;-36.624;-64.282;2023-09-07T01:16:33;10.60;81.70
59973;DHT22;55298;-36.624;-64.282;2023-09-07T01:19:02;10.60;81.30
59973;DHT22;55298;-36.624;-64.282;2023-09-07T01:21:37;10.50;81.80
59973;DHT22;55298;-36.624;-64.282;2023-09-07T01:24:08;10.60;81.90
59973;DHT22;55298;-36.624;-64.282;2023-09-07T01:26:37;10.50;81.20
59973;DHT22;55298;-36.624;-64.282;2023-09-07T01:29:06;10.50;81.80
59973;DHT22;55298;-36.624;-64.282;2023-09-07T01:31:37;10.50;82.20
59973;DHT22;55298;-36.624;-64.282;2023-09-07T01:34:07;10.50;82.50
59973;DHT22;55298;-36.624;-64.282;2023-09-07T01:36:35;10.50;82.60
59973;DHT22;55298;-36.624;-64.282;2023-09-07T01:39:05;10.50;82.50
59973;DHT22;55298;-36.624;-64.282;2023-09-07T01:41:34;10.50;82.60
59973;DHT22;55298;-36.624;-64.282;2023-09-07T01:44:02;10.40;82.90
59973;DHT22;55298;-36.624;-64.282;2023-09-07T01:46:29;10.30;82.50
59973;DHT22;55298;-36.624;-64.282;2023-09-07T01:48:57;10.30;83.10
59973;DHT22;55298;-36.624;-64.282;2023-09-07T01:51:25;10.30;83.20
59973;DHT22;55298;-36.624;-64.282;2023-09-07T01:53:56;10.40;83.20
59973;DHT22;55298;-36.624;-64.282;2023-09-07T01:56:23;10.40;83.20
59973;DHT22;55298;-36.624;-64.282;2023-09-07T01:58:53;10.40;83.00
59973;DHT22;55298;-36.624;-64.282;2023-09-07T02:01:30;10.40;82.60
59973;DHT22;55298;-36.624;-64.282;2023-09-07T02:03:58;10.40;82.80
59973;DHT22;55298;-36.624;-64.282;2023-09-07T02:06:26;10.30;82.60
59973;DHT22;55298;-36.624;-64.282;2023-09-07T02:08:54;10.30;82.80
59973;DHT22;55298;-36.624;-64.282;2023-09-07T02:11:32;10.30;83.40
59973;DHT22;55298;-36.624;-64.282;2023-09-07T02:14:00;10.20;83.80
59973;DHT22;55298;-36.624;-64.282;2023-09-07T02:16:28;10.20;84.60
59973;DHT22;55298;-36.624;-64.282;2023-09-07T02:19:02;10.10;84.90
59973;DHT22;55298;-36.624;-64.282;2023-09-07T02:21:37;10.00;85.80
59973;DHT22;55298;-36.624;-64.282;2023-09-07T02:24:05;9.90;86.20
59973;DHT22;55298;-36.624;-64.282;2023-09-07T02:26:32;9.70;86.60
59973;DHT22;55298;-36.624;-64.282;2023-09-07T02:29:00;9.80;87.50
59973;DHT22;55298;-36.624;-64.282;2023-09-07T02:31:32;9.70;88.50
59973;DHT22;55298;-36.624;-64.282;2023-09-07T02:34:00;9.60;90.10
59973;DHT22;55298;-36.624;-64.282;2023-09-07T02:36:28;9.50;90.60
59973;DHT22;55298;-36.624;-64.282;2023-09-07T02:38:56;9.40;91.30
59973;DHT22;55298;-36.624;-64.282;2023-09-07T02:41:23;9.20;92.00
59973;DHT22;55298;-36.624;-64.282;2023-09-07T02:43:51;9.20;92.50
59973;DHT22;55298;-36.624;-64.282;2023-09-07T02:46:19;9.20;92.80
59973;DHT22;55298;-36.624;-64.282;2023-09-07T02:48:47;9.20;92.70
59973;DHT22;55298;-36.624;-64.282;2023-09-07T02:51:14;9.20;92.90
59973;DHT22;55298;-36.624;-64.282;2023-09-07T02:53:43;9.20;93.00
59973;DHT22;55298;-36.624;-64.282;2023-09-07T02:56:11;9.30;93.40
59973;DHT22;55298;-36.624;-64.282;2023-09-07T02:58:39;9.30;93.10
59973;DHT22;55298;-36.624;-64.282;2023-09-07T03:01:07;9.30;93.10
59973;DHT22;55298;-36.624;-64.282;2023-09-07T03:03:37;9.40;93.10
59973;DHT22;55298;-36.624;-64.282;2023-09-07T03:06:11;9.40;93.00
59973;DHT22;55298;-36.624;-64.282;2023-09-07T03:08:40;9.40;92.60
59973;DHT22;55298;-36.624;-64.282;2023-09-07T03:11:08;9.50;92.90
59973;DHT22;55298;-36.624;-64.282;2023-09-07T03:13:37;9.60;92.80
59973;DHT22;55298;-36.624;-64.282;2023-09-07T03:16:05;9.60;92.60
59973;DHT22;55298;-36.624;-64.282;2023-09-07T03:18:33;9.70;92.40
59973;DHT22;55298;-36.624;-64.282;2023-09-07T03:21:02;9.70;92.20
59973;DHT22;55298;-36.624;-64.282;2023-09-07T03:23:31;9.80;92.10
59973;DHT22;55298;-36.624;-64.282;2023-09-07T03:26:00;9.80;92.00
59973;DHT22;55298;-36.624;-64.282;2023-09-07T03:28:28;9.70;91.60
59973;DHT22;55298;-36.624;-64.282;2023-09-07T03:30:55;9.80;91.50
59973;DHT22;55298;-36.624;-64.282;2023-09-07T03:33:23;9.80;91.40
59973;DHT22;55298;-36.624;-64.282;2023-09-07T03:35:51;9.80;91.10
59973;DHT22;55298;-36.624;-64.282;2023-09-07T03:38:19;9.80;91.00
59973;DHT22;55298;-36.624;-64.282;2023-09-07T03:40:47;9.80;90.80
59973;DHT22;55298;-36.624;-64.282;2023-09-07T03:43:15;9.90;90.70
59973;DHT22;55298;-36.624;-64.282;2023-09-07T03:45:42;9.90;90.50
59973;DHT22;55298;-36.624;-64.282;2023-09-07T03:48:10;9.90;90.50
59973;DHT22;55298;-36.624;-64.282;2023-09-07T03:50:38;9.90;90.50
59973;DHT22;55298;-36.624;-64.282;2023-09-07T03:53:06;10.00;90.50
59973;DHT22;55298;-36.624;-64.282;2023-09-07T03:55:42;10.00;90.40
59973;DHT22;55298;-36.624;-64.282;2023-09-07T03:58:11;10.00;90.40
59973;DHT22;55298;-36.624;-64.282;2023-09-07T04:00:40;10.10;90.50
59973;DHT22;55298;-36.624;-64.282;2023-09-07T04:03:08;10.00;90.50
59973;DHT22;55298;-36.624;-64.282;2023-09-07T04:05:39;10.10;90.60
59973;DHT22;55298;-36.624;-64.282;2023-09-07T04:08:07;10.20;90.60
59973;DHT22;55298;-36.624;-64.282;2023-09-07T04:10:38;10.10;90.60
59973;DHT22;55298;-36.624;-64.282;2023-09-07T04:13:10;10.10;90.60
59973;DHT22;55298;-36.624;-64.282;2023-09-07T04:15:46;10.10;90.70
59973;DHT22;55298;-36.624;-64.282;2023-09-07T04:18:14;10.00;90.80
59973;DHT22;55298;-36.624;-64.282;2023-09-07T04:20:44;10.00;90.90
59973;DHT22;55298;-36.624;-64.282;2023-09-07T04:23:11;10.00;91.00
59973;DHT22;55298;-36.624;-64.282;2023-09-07T04:25:39;10.00;91.10
59973;DHT22;55298;-36.624;-64.282;2023-09-07T04:28:07;10.00;91.50
59973;DHT22;55298;-36.624;-64.282;2023-09-07T04:30:39;10.00;92.10
59973;DHT22;55298;-36.624;-64.282;2023-09-07T04:33:07;9.90;93.00
59973;DHT22;55298;-36.624;-64.282;2023-09-07T04:35:35;9.60;94.00
59973;DHT22;55298;-36.624;-64.282;2023-09-07T04:38:02;9.50;94.90
59973;DHT22;55298;-36.624;-64.282;2023-09-07T04:40:30;9.40;96.20
59973;DHT22;55298;-36.624;-64.282;2023-09-07T04:42:58;9.20;96.80
59973;DHT22;55298;-36.624;-64.282;2023-09-07T04:45:27;9.20;97.50
59973;DHT22;55298;-36.624;-64.282;2023-09-07T04:47:55;9.10;98.30
59973;DHT22;55298;-36.624;-64.282;2023-09-07T04:50:22;9.00;99.10
59973;DHT22;55298;-36.624;-64.282;2023-09-07T04:52:50;9.00;99.80
59973;DHT22;55298;-36.624;-64.282;2023-09-07T04:55:18;9.00;99.90
59973;DHT22;55298;-36.624;-64.282;2023-09-07T04:57:47;9.00;99.90
59973;DHT22;55298;-36.624;-64.282;2023-09-07T05:00:14;9.00;99.90
59973;DHT22;55298;-36.624;-64.282;2023-09-07T05:02:42;9.00;99.90
59973;DHT22;55298;-36.624;-64.282;2023-09-07T05:05:10;9.00;99.90
59973;DHT22;55298;-36.624;-64.282;2023-09-07T05:07:38;8.90;99.90
59973;DHT22;55298;-36.624;-64.282;2023-09-07T05:10:06;8.80;99.90
59973;DHT22;55298;-36.624;-64.282;2023-09-07T05:12:35;8.80;99.90
59973;DHT22;55298;-36.624;-64.282;2023-09-07T05:15:03;8.70;99.90
59973;DHT22;55298;-36.624;-64.282;2023-09-07T05:17:33;8.70;99.90
59973;DHT22;55298;-36.624;-64.282;2023-09-07T05:20:05;8.70;99.90
59973;DHT22;55298;-36.624;-64.282;2023-09-07T05:22:33;8.70;99.90
59973;DHT22;55298;-36.624;-64.282;2023-09-07T05:25:03;8.60;99.90
59973;DHT22;55298;-36.624;-64.282;2023-09-07T05:27:31;8.60;99.90
59973;DHT22;55298;-36.624;-64.282;2023-09-07T05:29:59;8.60;99.90
59973;DHT22;55298;-36.624;-64.282;2023-09-07T05:32:27;8.60;99.90
59973;DHT22;55298;-36.624;-64.282;2023-09-07T05:34:54;8.60;99.90
59973;DHT22;55298;-36.624;-64.282;2023-09-07T05:37:23;8.60;99.90
59973;DHT22;55298;-36.624;-64.282;2023-09-07T05:39:51;8.60;99.90
59973;DHT22;55298;-36.624;-64.282;2023-09-07T05:42:20;8.60;99.90
59973;DHT22;55298;-36.624;-64.282;2023-09-07T05:44:48;8.60;99.90
59973;DHT22;55298;-36.624;-64.282;2023-09-07T05:47:17;8.60;99.90
59973;DHT22;55298;-36.624;-64.282;2023-09-07T05:49:44;8.50;99.90
59973;DHT22;55298;-36.624;-64.282;2023-09-07T05:52:12;8.40;99.90
59973;DHT22;55298;-36.624;-64.282;2023-09-07T05:54:39;8.40;99.90
59973;DHT22;55298;-36.624;-64.282;2023-09-07T05:57:07;8.20;99.90
59973;DHT22;55298;-36.624;-64.282;2023-09-07T05:59:35;8.30;99.90
59973;DHT22;55298;-36.624;-64.282;2023-09-07T06:02:03;8.30;99.90
59973;DHT22;55298;-36.624;-64.282;2023-09-07T06:04:30;8.30;99.90
59973;DHT22;55298;-36.624;-64.282;2023-09-07T06:06:58;8.30;99.90
59973;DHT22;55298;-36.624;-64.282;2023-09-07T06:09:26;8.50;99.90
59973;DHT22;55298;-36.624;-64.282;2023-09-07T06:11:56;8.40;99.90
59973;DHT22;55298;-36.624;-64.282;2023-09-07T06:14:23;8.40;99.90
59973;DHT22;55298;-36.624;-64.282;2023-09-07T06:16:51;8.40;99.90
59973;DHT22;55298;-36.624;-64.282;2023-09-07T06:19:19;8.40;99.90
59973;DHT22;55298;-36.624;-64.282;2023-09-07T06:21:48;8.40;99.90
59973;DHT22;55298;-36.624;-64.282;2023-09-07T06:24:16;8.40;99.90
59973;DHT22;55298;-36.624;-64.282;2023-09-07T06:26:44;8.30;99.90
59973;DHT22;55298;-36.624;-64.282;2023-09-07T06:29:12;8.30;99.90
59973;DHT22;55298;-36.624;-64.282;2023-09-07T06:31:40;8.30;99.90
59973;DHT22;55298;-36.624;-64.282;2023-09-07T06:34:08;8.20;99.90
59973;DHT22;55298;-36.624;-64.282;2023-09-07T06:36:36;8.20;99.90
59973;DHT22;55298;-36.624;-64.282;2023-09-07T06:39:04;8.20;99.90
59973;DHT22;55298;-36.624;-64.282;2023-09-07T06:41:32;8.20;99.90
59973;DHT22;55298;-36.624;-64.282;2023-09-07T06:44:00;8.10;99.90
59973;DHT22;55298;-36.624;-64.282;2023-09-07T06:46:28;8.00;99.90
59973;DHT22;55298;-36.624;-64.282;2023-09-07T06:48:55;8.00;99.90
59973;DHT22;55298;-36.624;-64.282;2023-09-07T06:51:23;8.00;99.90
59973;DHT22;55298;-36.624;-64.282;2023-09-07T06:53:51;7.90;99.90
59973;DHT22;55298;-36.624;-64.282;2023-09-07T06:56:18;7.90;99.90
59973;DHT22;55298;-36.624;-64.282;2023-09-07T06:58:46;8.00;99.90
59973;DHT22;55298;-36.624;-64.282;2023-09-07T07:01:14;8.00;99.90
59973;DHT22;55298;-36.624;-64.282;2023-09-07T07:03:42;8.00;99.90
59973;DHT22;55298;-36.624;-64.282;2023-09-07T07:06:10;8.00;99.90
59973;DHT22;55298;-36.624;-64.282;2023-09-07T07:08:38;7.90;99.90
59973;DHT22;55298;-36.624;-64.282;2023-09-07T07:11:05;8.10;99.90
59973;DHT22;55298;-36.624;-64.282;2023-09-07T07:13:33;8.10;99.90
59973;DHT22;55298;-36.624;-64.282;2023-09-07T07:16:01;8.00;99.90
59973;DHT22;55298;-36.624;-64.282;2023-09-07T07:18:28;8.00;99.90
59973;DHT22;55298;-36.624;-64.282;2023-09-07T07:20:56;8.10;99.90
59973;DHT22;55298;-36.624;-64.282;2023-09-07T07:23:24;8.10;99.90
59973;DHT22;55298;-36.624;-64.282;2023-09-07T07:25:51;8.00;99.90
59973;DHT22;55298;-36.624;-64.282;2023-09-07T07:28:19;7.90;99.90
59973;DHT22;55298;-36.624;-64.282;2023-09-07T07:30:47;7.80;99.90
59973;DHT22;55298;-36.624;-64.282;2023-09-07T07:33:15;7.70;99.90
59973;DHT22;55298;-36.624;-64.282;2023-09-07T07:35:42;7.70;99.90
59973;DHT22;55298;-36.624;-64.282;2023-09-07T07:38:11;7.70;99.90
59973;DHT22;55298;-36.624;-64.282;2023-09-07T07:40:40;7.60;99.90
59973;DHT22;55298;-36.624;-64.282;2023-09-07T07:43:09;7.60;99.90
59973;DHT22;55298;-36.624;-64.282;2023-09-07T07:45:39;7.60;99.90
59973;DHT22;55298;-36.624;-64.282;2023-09-07T07:48:07;7.60;99.90
59973;DHT22;55298;-36.624;-64.282;2023-09-07T07:50:38;7.60;99.90
59973;DHT22;55298;-36.624;-64.282;2023-09-07T07:53:07;7.50;99.90
59973;DHT22;55298;-36.624;-64.282;2023-09-07T07:55:37;7.60;99.90
59973;DHT22;55298;-36.624;-64.282;2023-09-07T07:58:06;7.60;99.90
59973;DHT22;55298;-36.624;-64.282;2023-09-07T08:00:36;7.60;99.90
59973;DHT22;55298;-36.624;-64.282;2023-09-07T08:03:05;7.60;99.90
59973;DHT22;55298;-36.624;-64.282;2023-09-07T08:05:34;7.50;99.90
59973;DHT22;55298;-36.624;-64.282;2023-09-07T08:08:02;7.50;99.90
59973;DHT22;55298;-36.624;-64.282;2023-09-07T08:10:33;7.60;99.90
59973;DHT22;55298;-36.624;-64.282;2023-09-07T08:13:02;7.50;99.90
59973;DHT22;55298;-36.624;-64.282;2023-09-07T08:15:31;7.50;99.90
59973;DHT22;55298;-36.624;-64.282;2023-09-07T08:18:00;7.50;99.90
59973;DHT22;55298;-36.624;-64.282;2023-09-07T08:20:28;7.60;99.90
59973;DHT22;55298;-36.624;-64.282;2023-09-07T08:22:57;7.50;99.90
59973;DHT22;55298;-36.624;-64.282;2023-09-07T08:25:24;7.50;99.90
59973;DHT22;55298;-36.624;-64.282;2023-09-07T08:27:52;7.50;99.90
59973;DHT22;55298;-36.624;-64.282;2023-09-07T08:30:24;7.50;99.90
59973;DHT22;55298;-36.624;-64.282;2023-09-07T08:32:52;7.60;99.90
59973;DHT22;55298;-36.624;-64.282;2023-09-07T08:35:20;7.60;99.90
59973;DHT22;55298;-36.624;-64.282;2023-09-07T08:37:54;7.60;99.90
59973;DHT22;55298;-36.624;-64.282;2023-09-07T08:40:26;7.40;99.90
59973;DHT22;55298;-36.624;-64.282;2023-09-07T08:42:56;7.50;99.90
59973;DHT22;55298;-36.624;-64.282;2023-09-07T08:45:26;7.60;99.90
59973;DHT22;55298;-36.624;-64.282;2023-09-07T08:47:58;7.70;99.90
59973;DHT22;55298;-36.624;-64.282;2023-09-07T08:50:26;7.70;99.90
59973;DHT22;55298;-36.624;-64.282;2023-09-07T08:52:54;7.70;99.90
59973;DHT22;55298;-36.624;-64.282;2023-09-07T08:55:22;7.60;99.90
59973;DHT22;55298;-36.624;-64.282;2023-09-07T08:57:50;7.70;99.90
59973;DHT22;55298;-36.624;-64.282;2023-09-07T09:00:18;7.70;99.90
59973;DHT22;55298;-36.624;-64.282;2023-09-07T09:02:47;7.70;99.90
59973;DHT22;55298;-36.624;-64.282;2023-09-07T09:05:16;7.70;99.90
59973;DHT22;55298;-36.624;-64.282;2023-09-07T09:07:47;7.60;99.90
59973;DHT22;55298;-36.624;-64.282;2023-09-07T09:10:17;7.70;99.90
59973;DHT22;55298;-36.624;-64.282;2023-09-07T09:12:46;7.70;99.90
59973;DHT22;55298;-36.624;-64.282;2023-09-07T09:15:14;7.60;99.90
59973;DHT22;55298;-36.624;-64.282;2023-09-07T09:17:42;7.60;99.90
59973;DHT22;55298;-36.624;-64.282;2023-09-07T09:20:20;7.60;99.90
59973;DHT22;55298;-36.624;-64.282;2023-09-07T09:22:52;7.60;99.90
59973;DHT22;55298;-36.624;-64.282;2023-09-07T09:25:21;7.60;99.90
59973;DHT22;55298;-36.624;-64.282;2023-09-07T09:27:49;7.60;99.90
59973;DHT22;55298;-36.624;-64.282;2023-09-07T09:30:17;7.60;99.90
59973;DHT22;55298;-36.624;-64.282;2023-09-07T09:32:48;7.60;99.90
59973;DHT22;55298;-36.624;-64.282;2023-09-07T09:35:18;7.60;99.90
59973;DHT22;55298;-36.624;-64.282;2023-09-07T09:37:47;7.70;99.90
59973;DHT22;55298;-36.624;-64.282;2023-09-07T09:40:16;7.70;99.90
59973;DHT22;55298;-36.624;-64.282;2023-09-07T09:42:49;7.70;99.90
59973;DHT22;55298;-36.624;-64.282;2023-09-07T09:45:20;7.70;99.90
59973;DHT22;55298;-36.624;-64.282;2023-09-07T09:47:49;7.60;99.90
59973;DHT22;55298;-36.624;-64.282;2023-09-07T09:50:19;7.60;99.90
59973;DHT22;55298;-36.624;-64.282;2023-09-07T09:52:48;7.60;99.90
59973;DHT22;55298;-36.624;-64.282;2023-09-07T09:55:16;7.60;99.90
59973;DHT22;55298;-36.624;-64.282;2023-09-07T09:57:44;7.60;99.90
59973;DHT22;55298;-36.624;-64.282;2023-09-07T10:00:13;7.70;99.90
59973;DHT22;55298;-36.624;-64.282;2023-09-07T10:03:05;7.60;99.90
59973;DHT22;55298;-36.624;-64.282;2023-09-07T10:05:35;7.70;99.90
59973;DHT22;55298;-36.624;-64.282;2023-09-07T10:08:07;7.70;99.90
59973;DHT22;55298;-36.624;-64.282;2023-09-07T10:10:37;7.70;99.90
59973;DHT22;55298;-36.624;-64.282;2023-09-07T10:13:06;7.80;99.90
59973;DHT22;55298;-36.624;-64.282;2023-09-07T10:15:34;7.70;99.90
59973;DHT22;55298;-36.624;-64.282;2023-09-07T10:18:18;7.70;99.90
59973;DHT22;55298;-36.624;-64.282;2023-09-07T10:20:56;7.70;99.90
59973;DHT22;55298;-36.624;-64.282;2023-09-07T10:23:39;7.80;99.90
59973;DHT22;55298;-36.624;-64.282;2023-09-07T10:26:14;7.80;99.90
59973;DHT22;55298;-36.624;-64.282;2023-09-07T10:28:44;7.90;99.90
59973;DHT22;55298;-36.624;-64.282;2023-09-07T10:31:17;7.90;99.90
59973;DHT22;55298;-36.624;-64.282;2023-09-07T10:33:46;8.00;99.90
59973;DHT22;55298;-36.624;-64.282;2023-09-07T10:36:25;8.00;99.90
59973;DHT22;55298;-36.624;-64.282;2023-09-07T10:38:58;8.20;99.90
59973;DHT22;55298;-36.624;-64.282;2023-09-07T10:41:25;8.20;99.90
59973;DHT22;55298;-36.624;-64.282;2023-09-07T10:43:54;8.20;99.90
59973;DHT22;55298;-36.624;-64.282;2023-09-07T10:46:24;8.30;99.90
59973;DHT22;55298;-36.624;-64.282;2023-09-07T10:52:18;8.00;99.90
59973;DHT22;55298;-36.624;-64.282;2023-09-07T10:54:56;8.10;99.90
59973;DHT22;55298;-36.624;-64.282;2023-09-07T10:57:43;8.10;99.90
59973;DHT22;55298;-36.624;-64.282;2023-09-07T11:00:29;8.20;99.90
59973;DHT22;55298;-36.624;-64.282;2023-09-07T11:03:38;8.20;99.90
59973;DHT22;55298;-36.624;-64.282;2023-09-07T11:06:10;8.20;99.90
59973;DHT22;55298;-36.624;-64.282;2023-09-07T11:08:39;8.20;99.90
59973;DHT22;55298;-36.624;-64.282;2023-09-07T11:11:12;8.30;99.90
59973;DHT22;55298;-36.624;-64.282;2023-09-07T11:13:40;8.30;99.90
59973;DHT22;55298;-36.624;-64.282;2023-09-07T11:16:09;8.30;99.90
59973;DHT22;55298;-36.624;-64.282;2023-09-07T11:18:37;8.40;99.90
59973;DHT22;55298;-36.624;-64.282;2023-09-07T11:21:05;8.40;99.90
59973;DHT22;55298;-36.624;-64.282;2023-09-07T11:23:34;8.40;99.90
59973;DHT22;55298;-36.624;-64.282;2023-09-07T11:26:05;8.40;99.90
59973;DHT22;55298;-36.624;-64.282;2023-09-07T11:28:34;8.20;99.90
59973;DHT22;55298;-36.624;-64.282;2023-09-07T11:31:02;8.20;99.90
59973;DHT22;55298;-36.624;-64.282;2023-09-07T11:33:33;8.30;99.90
59973;DHT22;55298;-36.624;-64.282;2023-09-07T11:36:02;8.30;99.90
59973;DHT22;55298;-36.624;-64.282;2023-09-07T11:38:42;8.40;99.90
59973;DHT22;55298;-36.624;-64.282;2023-09-07T11:41:10;8.50;99.90
59973;DHT22;55298;-36.624;-64.282;2023-09-07T11:43:38;8.60;99.90
59973;DHT22;55298;-36.624;-64.282;2023-09-07T11:46:06;8.60;99.90
59973;DHT22;55298;-36.624;-64.282;2023-09-07T11:48:34;8.60;99.90
59973;DHT22;55298;-36.624;-64.282;2023-09-07T11:51:18;8.60;99.90
59973;DHT22;55298;-36.624;-64.282;2023-09-07T11:53:45;8.60;99.90
59973;DHT22;55298;-36.624;-64.282;2023-09-07T11:56:15;8.50;99.90
59973;DHT22;55298;-36.624;-64.282;2023-09-07T11:58:46;8.40;99.90
59973;DHT22;55298;-36.624;-64.282;2023-09-07T12:01:14;8.30;99.90
59973;DHT22;55298;-36.624;-64.282;2023-09-07T12:03:43;8.30;99.90
59973;DHT22;55298;-36.624;-64.282;2023-09-07T12:06:19;8.20;99.90
59973;DHT22;55298;-36.624;-64.282;2023-09-07T12:09:04;8.20;99.90
59973;DHT22;55298;-36.624;-64.282;2023-09-07T12:11:33;8.10;99.90
59973;DHT22;55298;-36.624;-64.282;2023-09-07T12:14:27;8.00;99.90
59973;DHT22;55298;-36.624;-64.282;2023-09-07T12:16:55;7.90;99.90
59973;DHT22;55298;-36.624;-64.282;2023-09-07T12:19:28;8.00;99.90
59973;DHT22;55298;-36.624;-64.282;2023-09-07T12:22:09;8.10;99.90
59973;DHT22;55298;-36.624;-64.282;2023-09-07T12:24:40;8.20;99.90
59973;DHT22;55298;-36.624;-64.282;2023-09-07T12:27:08;8.30;99.90
59973;DHT22;55298;-36.624;-64.282;2023-09-07T12:29:37;8.40;99.90
59973;DHT22;55298;-36.624;-64.282;2023-09-07T12:32:06;8.40;99.90
59973;DHT22;55298;-36.624;-64.282;2023-09-07T12:34:38;8.50;99.90
59973;DHT22;55298;-36.624;-64.282;2023-09-07T12:37:07;8.50;99.90
59973;DHT22;55298;-36.624;-64.282;2023-09-07T12:39:36;8.50;99.90
59973;DHT22;55298;-36.624;-64.282;2023-09-07T12:42:04;8.40;99.90
59973;DHT22;55298;-36.624;-64.282;2023-09-07T12:44:34;8.40;99.90
59973;DHT22;55298;-36.624;-64.282;2023-09-07T12:47:02;8.50;99.90
59973;DHT22;55298;-36.624;-64.282;2023-09-07T12:49:30;8.40;99.90
59973;DHT22;55298;-36.624;-64.282;2023-09-07T12:51:58;8.40;99.90
59973;DHT22;55298;-36.624;-64.282;2023-09-07T12:54:27;8.40;99.90
59973;DHT22;55298;-36.624;-64.282;2023-09-07T12:56:55;8.40;99.90
59973;DHT22;55298;-36.624;-64.282;2023-09-07T12:59:22;8.30;99.90
59973;DHT22;55298;-36.624;-64.282;2023-09-07T13:01:51;8.30;99.90
59973;DHT22;55298;-36.624;-64.282;2023-09-07T13:04:22;8.30;99.90
59973;DHT22;55298;-36.624;-64.282;2023-09-07T13:06:50;8.40;99.90
59973;DHT22;55298;-36.624;-64.282;2023-09-07T13:09:17;8.20;99.90
59973;DHT22;55298;-36.624;-64.282;2023-09-07T13:11:46;8.20;99.90
59973;DHT22;55298;-36.624;-64.282;2023-09-07T13:14:14;8.10;99.90
59973;DHT22;55298;-36.624;-64.282;2023-09-07T13:16:41;8.20;99.90
59973;DHT22;55298;-36.624;-64.282;2023-09-07T13:19:17;8.30;99.90
59973;DHT22;55298;-36.624;-64.282;2023-09-07T13:21:45;8.50;99.90
59973;DHT22;55298;-36.624;-64.282;2023-09-07T13:24:12;8.50;99.90
59973;DHT22;55298;-36.624;-64.282;2023-09-07T13:27:01;8.50;99.90
59973;DHT22;55298;-36.624;-64.282;2023-09-07T13:29:32;8.60;99.90
59973;DHT22;55298;-36.624;-64.282;2023-09-07T13:32:00;8.70;99.90
59973;DHT22;55298;-36.624;-64.282;2023-09-07T13:34:28;8.80;99.90
59973;DHT22;55298;-36.624;-64.282;2023-09-07T13:36:56;8.90;99.90
59973;DHT22;55298;-36.624;-64.282;2023-09-07T13:39:27;9.00;99.90
59973;DHT22;55298;-36.624;-64.282;2023-09-07T13:41:55;9.10;99.90
59973;DHT22;55298;-36.624;-64.282;2023-09-07T13:44:23;9.20;99.90
59973;DHT22;55298;-36.624;-64.282;2023-09-07T13:46:51;9.20;99.90
59973;DHT22;55298;-36.624;-64.282;2023-09-07T13:49:21;9.20;99.90
59973;DHT22;55298;-36.624;-64.282;2023-09-07T13:51:52;9.20;99.90
59973;DHT22;55298;-36.624;-64.282;2023-09-07T13:54:20;9.20;99.90
59973;DHT22;55298;-36.624;-64.282;2023-09-07T13:56:49;9.30;99.90
59973;DHT22;55298;-36.624;-64.282;2023-09-07T13:59:18;9.30;99.90
59973;DHT22;55298;-36.624;-64.282;2023-09-07T14:01:46;9.40;99.90
59973;DHT22;55298;-36.624;-64.282;2023-09-07T14:04:15;9.50;99.90
59973;DHT22;55298;-36.624;-64.282;2023-09-07T14:06:44;9.50;99.90
59973;DHT22;55298;-36.624;-64.282;2023-09-07T14:09:13;9.60;99.90
59973;DHT22;55298;-36.624;-64.282;2023-09-07T14:11:41;9.60;99.90
59973;DHT22;55298;-36.624;-64.282;2023-09-07T14:14:09;9.60;99.90
59973;DHT22;55298;-36.624;-64.282;2023-09-07T14:16:37;9.70;99.90
59973;DHT22;55298;-36.624;-64.282;2023-09-07T14:19:09;9.80;99.90
59973;DHT22;55298;-36.624;-64.282;2023-09-07T14:21:37;9.90;99.90
59973;DHT22;55298;-36.624;-64.282;2023-09-07T14:24:05;10.00;99.90
59973;DHT22;55298;-36.624;-64.282;2023-09-07T14:26:36;10.10;99.90
59973;DHT22;55298;-36.624;-64.282;2023-09-07T14:29:03;10.10;99.90
59973;DHT22;55298;-36.624;-64.282;2023-09-07T14:31:33;10.20;99.90
59973;DHT22;55298;-36.624;-64.282;2023-09-07T14:34:01;10.20;99.90
59973;DHT22;55298;-36.624;-64.282;2023-09-07T14:36:33;10.30;99.90
59973;DHT22;55298;-36.624;-64.282;2023-09-07T14:39:02;10.30;99.90
59973;DHT22;55298;-36.624;-64.282;2023-09-07T14:41:31;10.40;99.90
59973;DHT22;55298;-36.624;-64.282;2023-09-07T14:47:25;10.50;99.90
59973;DHT22;55298;-36.624;-64.282;2023-09-07T14:50:03;10.60;99.90
59973;DHT22;55298;-36.624;-64.282;2023-09-07T14:52:31;10.70;99.90
59973;DHT22;55298;-36.624;-64.282;2023-09-07T14:55:04;10.80;99.90
59973;DHT22;55298;-36.624;-64.282;2023-09-07T14:57:36;10.90;99.90
59973;DHT22;55298;-36.624;-64.282;2023-09-07T15:00:24;11.10;99.90
59973;DHT22;55298;-36.624;-64.282;2023-09-07T15:02:54;11.30;99.90
59973;DHT22;55298;-36.624;-64.282;2023-09-07T15:05:23;11.50;99.90
59973;DHT22;55298;-36.624;-64.282;2023-09-07T15:07:50;11.70;99.90
59973;DHT22;55298;-36.624;-64.282;2023-09-07T15:10:19;11.90;99.90
59973;DHT22;55298;-36.624;-64.282;2023-09-07T15:12:47;12.30;99.90
59973;DHT22;55298;-36.624;-64.282;2023-09-07T15:15:16;12.40;99.90
59973;DHT22;55298;-36.624;-64.282;2023-09-07T15:17:47;12.60;99.90
59973;DHT22;55298;-36.624;-64.282;2023-09-07T15:20:15;12.60;99.90